sensor_id;sensor_type;location;lat;lon;timestamp;temperature;humidity
45339;DHT22;31071;51.478;5.710;2022-10-10T00:01:14;7.90;99.90
45339;DHT22;31071;51.478;5.710;2022-10-10T00:03:41;7.80;99.90
45339;DHT22;31071;51.478;5.710;2022-10-10T00:06:06;7.80;99.90
45339;DHT22;31071;51.478;5.710;2022-10-10T00:08:32;7.80;99.90
45339;DHT22;31071;51.478;5.710;2022-10-10T00:10:58;7.80;99.90
45339;DHT22;31071;51.478;5.710;2022-10-10T00:13:23;7.70;99.90
45339;DHT22;31071;51.478;5.710;2022-10-10T00:15:49;7.70;99.90
45339;DHT22;31071;51.478;5.710;2022-10-10T00:18:15;7.60;99.90
45339;DHT22;31071;51.478;5.710;2022-10-10T00:20:41;7.60;99.90
45339;DHT22;31071;51.478;5.710;2022-10-10T00:23:06;7.50;99.90
45339;DHT22;31071;51.478;5.710;2022-10-10T00:25:32;7.50;99.90
45339;DHT22;31071;51.478;5.710;2022-10-10T00:28:02;7.50;99.90
45339;DHT22;31071;51.478;5.710;2022-10-10T00:30:28;7.50;99.90
45339;DHT22;31071;51.478;5.710;2022-10-10T00:32:53;7.50;99.90
45339;DHT22;31071;51.478;5.710;2022-10-10T00:35:19;7.40;99.90
45339;DHT22;31071;51.478;5.710;2022-10-10T00:37:44;7.40;99.90
45339;DHT22;31071;51.478;5.710;2022-10-10T00:40:11;7.30;99.90
45339;DHT22;31071;51.478;5.710;2022-10-10T00:42:36;7.30;99.90
45339;DHT22;31071;51.478;5.710;2022-10-10T00:45:26;7.30;99.90
45339;DHT22;31071;51.478;5.710;2022-10-10T00:47:57;7.30;99.90
45339;DHT22;31071;51.478;5.710;2022-10-10T00:50:25;7.30;99.90
45339;DHT22;31071;51.478;5.710;2022-10-10T00:52:51;7.30;99.90
45339;DHT22;31071;51.478;5.710;2022-10-10T00:55:17;7.20;99.90
45339;DHT22;31071;51.478;5.710;2022-10-10T00:57:54;7.20;99.90
45339;DHT22;31071;51.478;5.710;2022-10-10T01:00:20;7.10;99.90
45339;DHT22;31071;51.478;5.710;2022-10-10T01:02:46;7.10;99.90
45339;DHT22;31071;51.478;5.710;2022-10-10T01:05:11;7.10;99.90
45339;DHT22;31071;51.478;5.710;2022-10-10T01:07:37;7.10;99.90
45339;DHT22;31071;51.478;5.710;2022-10-10T01:10:07;7.00;99.90
45339;DHT22;31071;51.478;5.710;2022-10-10T01:13:06;7.00;99.90
45339;DHT22;31071;51.478;5.710;2022-10-10T01:21:19;7.00;99.90
45339;DHT22;31071;51.478;5.710;2022-10-10T01:29:55;7.00;99.90
45339;DHT22;31071;51.478;5.710;2022-10-10T01:35:11;7.10;99.90
45339;DHT22;31071;51.478;5.710;2022-10-10T01:40:38;7.00;99.90
45339;DHT22;31071;51.478;5.710;2022-10-10T01:43:07;7.00;99.90
45339;DHT22;31071;51.478;5.710;2022-10-10T01:45:33;6.90;99.90
45339;DHT22;31071;51.478;5.710;2022-10-10T01:48:02;6.90;99.90
45339;DHT22;31071;51.478;5.710;2022-10-10T01:50:35;6.90;99.90
45339;DHT22;31071;51.478;5.710;2022-10-10T01:53:14;6.90;99.90
45339;DHT22;31071;51.478;5.710;2022-10-10T01:55:55;6.90;99.90
45339;DHT22;31071;51.478;5.710;2022-10-10T02:01:16;6.90;99.90
45339;DHT22;31071;51.478;5.710;2022-10-10T02:03:54;6.80;99.90
45339;DHT22;31071;51.478;5.710;2022-10-10T02:06:43;6.80;99.90
45339;DHT22;31071;51.478;5.710;2022-10-10T02:09:15;6.70;99.90
45339;DHT22;31071;51.478;5.710;2022-10-10T02:11:42;6.70;99.90
45339;DHT22;31071;51.478;5.710;2022-10-10T02:14:25;6.70;99.90
45339;DHT22;31071;51.478;5.710;2022-10-10T02:16:54;6.70;99.90
45339;DHT22;31071;51.478;5.710;2022-10-10T02:19:22;6.70;99.90
45339;DHT22;31071;51.478;5.710;2022-10-10T02:21:50;6.70;99.90
45339;DHT22;31071;51.478;5.710;2022-10-10T02:24:19;6.60;99.90
45339;DHT22;31071;51.478;5.710;2022-10-10T02:26:48;6.60;99.90
45339;DHT22;31071;51.478;5.710;2022-10-10T02:29:19;6.60;99.90
45339;DHT22;31071;51.478;5.710;2022-10-10T02:32:05;6.70;99.90
45339;DHT22;31071;51.478;5.710;2022-10-10T02:34:37;6.70;99.90
45339;DHT22;31071;51.478;5.710;2022-10-10T02:37:11;6.70;99.90
45339;DHT22;31071;51.478;5.710;2022-10-10T02:39:44;6.70;99.90
45339;DHT22;31071;51.478;5.710;2022-10-10T02:42:13;6.80;99.90
45339;DHT22;31071;51.478;5.710;2022-10-10T02:44:40;6.70;99.90
45339;DHT22;31071;51.478;5.710;2022-10-10T02:47:08;6.80;99.90
45339;DHT22;31071;51.478;5.710;2022-10-10T02:49:34;6.80;99.90
45339;DHT22;31071;51.478;5.710;2022-10-10T02:52:00;6.80;99.90
45339;DHT22;31071;51.478;5.710;2022-10-10T02:54:26;6.90;99.90
45339;DHT22;31071;51.478;5.710;2022-10-10T02:56:51;7.00;99.90
45339;DHT22;31071;51.478;5.710;2022-10-10T02:59:17;7.00;99.90
45339;DHT22;31071;51.478;5.710;2022-10-10T03:01:43;6.90;99.90
45339;DHT22;31071;51.478;5.710;2022-10-10T03:04:09;6.90;99.90
45339;DHT22;31071;51.478;5.710;2022-10-10T03:06:34;6.90;99.90
45339;DHT22;31071;51.478;5.710;2022-10-10T03:09:00;6.80;99.90
45339;DHT22;31071;51.478;5.710;2022-10-10T03:11:26;6.90;99.90
45339;DHT22;31071;51.478;5.710;2022-10-10T03:13:51;6.90;99.90
45339;DHT22;31071;51.478;5.710;2022-10-10T03:16:17;7.00;99.90
45339;DHT22;31071;51.478;5.710;2022-10-10T03:18:43;7.00;99.90
45339;DHT22;31071;51.478;5.710;2022-10-10T03:21:08;7.00;99.90
45339;DHT22;31071;51.478;5.710;2022-10-10T03:23:34;7.00;99.90
45339;DHT22;31071;51.478;5.710;2022-10-10T03:26:01;7.10;99.90
45339;DHT22;31071;51.478;5.710;2022-10-10T03:28:26;7.10;99.90
45339;DHT22;31071;51.478;5.710;2022-10-10T03:30:52;7.10;99.90
45339;DHT22;31071;51.478;5.710;2022-10-10T03:33:17;7.10;99.90
45339;DHT22;31071;51.478;5.710;2022-10-10T03:35:43;7.20;99.90
45339;DHT22;31071;51.478;5.710;2022-10-10T03:38:11;7.10;99.90
45339;DHT22;31071;51.478;5.710;2022-10-10T03:40:41;7.20;99.90
45339;DHT22;31071;51.478;5.710;2022-10-10T03:43:08;7.20;99.90
45339;DHT22;31071;51.478;5.710;2022-10-10T03:45:34;7.30;99.90
45339;DHT22;31071;51.478;5.710;2022-10-10T03:48:00;7.30;99.90
45339;DHT22;31071;51.478;5.710;2022-10-10T03:50:25;7.30;99.90
45339;DHT22;31071;51.478;5.710;2022-10-10T03:52:51;7.30;99.90
45339;DHT22;31071;51.478;5.710;2022-10-10T03:55:16;7.20;99.90
45339;DHT22;31071;51.478;5.710;2022-10-10T03:57:42;7.20;99.90
45339;DHT22;31071;51.478;5.710;2022-10-10T04:00:08;7.20;99.90
45339;DHT22;31071;51.478;5.710;2022-10-10T04:02:34;7.10;99.90
45339;DHT22;31071;51.478;5.710;2022-10-10T04:05:00;7.10;99.90
45339;DHT22;31071;51.478;5.710;2022-10-10T04:07:26;7.00;99.90
45339;DHT22;31071;51.478;5.710;2022-10-10T04:09:52;7.00;99.90
45339;DHT22;31071;51.478;5.710;2022-10-10T04:12:18;7.00;99.90
45339;DHT22;31071;51.478;5.710;2022-10-10T04:14:44;7.00;99.90
45339;DHT22;31071;51.478;5.710;2022-10-10T04:17:09;6.90;99.90
45339;DHT22;31071;51.478;5.710;2022-10-10T04:19:35;7.00;99.90
45339;DHT22;31071;51.478;5.710;2022-10-10T04:22:00;7.00;99.90
45339;DHT22;31071;51.478;5.710;2022-10-10T04:24:26;7.00;99.90
45339;DHT22;31071;51.478;5.710;2022-10-10T04:26:52;7.00;99.90
45339;DHT22;31071;51.478;5.710;2022-10-10T04:29:17;7.00;99.90
45339;DHT22;31071;51.478;5.710;2022-10-10T04:31:43;7.00;99.90
45339;DHT22;31071;51.478;5.710;2022-10-10T04:34:08;7.00;99.90
45339;DHT22;31071;51.478;5.710;2022-10-10T04:36:34;7.00;99.90
45339;DHT22;31071;51.478;5.710;2022-10-10T04:38:59;7.10;99.90
45339;DHT22;31071;51.478;5.710;2022-10-10T04:41:25;7.10;99.90
45339;DHT22;31071;51.478;5.710;2022-10-10T04:43:50;7.10;99.90
45339;DHT22;31071;51.478;5.710;2022-10-10T04:46:16;7.10;99.90
45339;DHT22;31071;51.478;5.710;2022-10-10T04:48:42;7.00;99.90
45339;DHT22;31071;51.478;5.710;2022-10-10T04:51:09;7.10;99.90
45339;DHT22;31071;51.478;5.710;2022-10-10T04:53:34;7.20;99.90
45339;DHT22;31071;51.478;5.710;2022-10-10T04:56:00;7.30;99.90
45339;DHT22;31071;51.478;5.710;2022-10-10T04:58:26;7.30;99.90
45339;DHT22;31071;51.478;5.710;2022-10-10T05:00:54;7.30;99.90
45339;DHT22;31071;51.478;5.710;2022-10-10T05:03:23;7.30;99.90
45339;DHT22;31071;51.478;5.710;2022-10-10T05:05:50;7.30;99.90
45339;DHT22;31071;51.478;5.710;2022-10-10T05:08:16;7.30;99.90
45339;DHT22;31071;51.478;5.710;2022-10-10T05:10:43;7.30;99.90
45339;DHT22;31071;51.478;5.710;2022-10-10T05:13:12;7.20;99.90
45339;DHT22;31071;51.478;5.710;2022-10-10T05:15:38;7.30;99.90
45339;DHT22;31071;51.478;5.710;2022-10-10T05:18:04;7.20;99.90
45339;DHT22;31071;51.478;5.710;2022-10-10T05:20:30;7.20;99.90
45339;DHT22;31071;51.478;5.710;2022-10-10T05:22:56;7.30;99.90
45339;DHT22;31071;51.478;5.710;2022-10-10T05:25:22;7.30;99.90
45339;DHT22;31071;51.478;5.710;2022-10-10T05:27:47;7.30;99.90
45339;DHT22;31071;51.478;5.710;2022-10-10T05:30:13;7.30;99.90
45339;DHT22;31071;51.478;5.710;2022-10-10T05:32:39;7.30;99.90
45339;DHT22;31071;51.478;5.710;2022-10-10T05:35:05;7.30;99.90
45339;DHT22;31071;51.478;5.710;2022-10-10T05:37:32;7.30;99.90
45339;DHT22;31071;51.478;5.710;2022-10-10T05:39:58;7.40;99.90
45339;DHT22;31071;51.478;5.710;2022-10-10T05:42:23;7.40;99.90
45339;DHT22;31071;51.478;5.710;2022-10-10T05:44:49;7.50;99.90
45339;DHT22;31071;51.478;5.710;2022-10-10T05:47:14;7.50;99.90
45339;DHT22;31071;51.478;5.710;2022-10-10T05:49:40;7.50;99.90
45339;DHT22;31071;51.478;5.710;2022-10-10T05:52:06;7.50;99.90
45339;DHT22;31071;51.478;5.710;2022-10-10T05:54:31;7.50;99.90
45339;DHT22;31071;51.478;5.710;2022-10-10T05:56:57;7.50;99.90
45339;DHT22;31071;51.478;5.710;2022-10-10T05:59:22;7.50;99.90
45339;DHT22;31071;51.478;5.710;2022-10-10T06:01:48;7.60;99.90
45339;DHT22;31071;51.478;5.710;2022-10-10T06:04:14;7.50;99.90
45339;DHT22;31071;51.478;5.710;2022-10-10T06:06:39;7.60;99.90
45339;DHT22;31071;51.478;5.710;2022-10-10T06:09:05;7.60;99.90
45339;DHT22;31071;51.478;5.710;2022-10-10T06:11:31;7.60;99.90
45339;DHT22;31071;51.478;5.710;2022-10-10T06:13:57;7.70;99.90
45339;DHT22;31071;51.478;5.710;2022-10-10T06:16:24;7.70;99.90
45339;DHT22;31071;51.478;5.710;2022-10-10T06:18:50;7.80;99.90
45339;DHT22;31071;51.478;5.710;2022-10-10T06:21:16;7.80;99.90
45339;DHT22;31071;51.478;5.710;2022-10-10T06:23:43;7.80;99.90
45339;DHT22;31071;51.478;5.710;2022-10-10T06:26:09;7.90;99.90
45339;DHT22;31071;51.478;5.710;2022-10-10T06:28:35;7.90;99.90
45339;DHT22;31071;51.478;5.710;2022-10-10T06:31:02;8.00;99.90
45339;DHT22;31071;51.478;5.710;2022-10-10T06:33:28;8.00;99.90
45339;DHT22;31071;51.478;5.710;2022-10-10T06:35:54;8.10;99.90
45339;DHT22;31071;51.478;5.710;2022-10-10T06:38:19;8.20;99.90
45339;DHT22;31071;51.478;5.710;2022-10-10T06:40:45;8.20;99.90
45339;DHT22;31071;51.478;5.710;2022-10-10T06:43:12;8.30;99.90
45339;DHT22;31071;51.478;5.710;2022-10-10T06:45:43;8.30;99.90
45339;DHT22;31071;51.478;5.710;2022-10-10T06:48:10;8.40;99.90
45339;DHT22;31071;51.478;5.710;2022-10-10T06:50:36;8.40;99.90
45339;DHT22;31071;51.478;5.710;2022-10-10T06:53:02;8.50;99.90
45339;DHT22;31071;51.478;5.710;2022-10-10T06:55:28;8.50;99.90
45339;DHT22;31071;51.478;5.710;2022-10-10T06:57:53;8.50;99.90
45339;DHT22;31071;51.478;5.710;2022-10-10T07:00:19;8.60;99.90
45339;DHT22;31071;51.478;5.710;2022-10-10T07:02:45;8.60;99.90
45339;DHT22;31071;51.478;5.710;2022-10-10T07:05:12;8.70;99.90
45339;DHT22;31071;51.478;5.710;2022-10-10T07:07:38;8.70;99.90
45339;DHT22;31071;51.478;5.710;2022-10-10T07:10:08;8.70;99.90
45339;DHT22;31071;51.478;5.710;2022-10-10T07:12:34;8.80;99.90
45339;DHT22;31071;51.478;5.710;2022-10-10T07:15:00;8.90;99.90
45339;DHT22;31071;51.478;5.710;2022-10-10T07:17:25;9.10;99.90
45339;DHT22;31071;51.478;5.710;2022-10-10T07:19:51;9.20;99.90
45339;DHT22;31071;51.478;5.710;2022-10-10T07:22:16;9.30;99.90
45339;DHT22;31071;51.478;5.710;2022-10-10T07:24:42;9.50;99.90
45339;DHT22;31071;51.478;5.710;2022-10-10T07:27:07;9.60;99.90
45339;DHT22;31071;51.478;5.710;2022-10-10T07:29:33;9.70;99.90
45339;DHT22;31071;51.478;5.710;2022-10-10T07:31:59;9.80;99.90
45339;DHT22;31071;51.478;5.710;2022-10-10T07:34:24;9.90;99.90
45339;DHT22;31071;51.478;5.710;2022-10-10T07:36:50;10.00;99.90
45339;DHT22;31071;51.478;5.710;2022-10-10T07:39:19;10.20;99.90
45339;DHT22;31071;51.478;5.710;2022-10-10T07:41:45;10.30;99.90
45339;DHT22;31071;51.478;5.710;2022-10-10T07:44:11;10.40;99.90
45339;DHT22;31071;51.478;5.710;2022-10-10T07:46:38;10.50;99.90
45339;DHT22;31071;51.478;5.710;2022-10-10T07:49:03;10.70;99.90
45339;DHT22;31071;51.478;5.710;2022-10-10T07:51:29;10.80;99.90
45339;DHT22;31071;51.478;5.710;2022-10-10T07:53:54;10.90;99.90
45339;DHT22;31071;51.478;5.710;2022-10-10T07:56:20;11.10;99.90
45339;DHT22;31071;51.478;5.710;2022-10-10T07:58:45;11.30;99.90
45339;DHT22;31071;51.478;5.710;2022-10-10T08:01:12;11.50;99.90
45339;DHT22;31071;51.478;5.710;2022-10-10T08:03:38;11.60;99.90
45339;DHT22;31071;51.478;5.710;2022-10-10T08:06:06;11.80;99.90
45339;DHT22;31071;51.478;5.710;2022-10-10T08:08:33;12.00;99.90
45339;DHT22;31071;51.478;5.710;2022-10-10T08:10:59;12.10;99.90
45339;DHT22;31071;51.478;5.710;2022-10-10T08:13:26;12.30;99.90
45339;DHT22;31071;51.478;5.710;2022-10-10T08:15:52;12.50;99.90
45339;DHT22;31071;51.478;5.710;2022-10-10T08:18:18;12.50;99.90
45339;DHT22;31071;51.478;5.710;2022-10-10T08:20:44;12.70;99.90
45339;DHT22;31071;51.478;5.710;2022-10-10T08:23:10;12.90;99.90
45339;DHT22;31071;51.478;5.710;2022-10-10T08:25:35;13.00;99.90
45339;DHT22;31071;51.478;5.710;2022-10-10T08:28:01;13.20;99.90
45339;DHT22;31071;51.478;5.710;2022-10-10T08:30:26;13.50;99.90
45339;DHT22;31071;51.478;5.710;2022-10-10T08:32:52;14.20;99.90
45339;DHT22;31071;51.478;5.710;2022-10-10T08:35:17;14.90;99.90
45339;DHT22;31071;51.478;5.710;2022-10-10T08:37:56;15.20;99.90
45339;DHT22;31071;51.478;5.710;2022-10-10T08:40:22;15.80;99.90
45339;DHT22;31071;51.478;5.710;2022-10-10T08:42:51;16.30;99.90
45339;DHT22;31071;51.478;5.710;2022-10-10T08:45:24;16.40;99.90
45339;DHT22;31071;51.478;5.710;2022-10-10T08:48:06;16.30;99.90
45339;DHT22;31071;51.478;5.710;2022-10-10T08:50:38;16.20;99.90
45339;DHT22;31071;51.478;5.710;2022-10-10T08:53:15;16.10;99.90
45339;DHT22;31071;51.478;5.710;2022-10-10T08:55:44;16.20;99.90
45339;DHT22;31071;51.478;5.710;2022-10-10T09:00:44;16.50;99.90
45339;DHT22;31071;51.478;5.710;2022-10-10T09:08:51;16.50;99.90
45339;DHT22;31071;51.478;5.710;2022-10-10T09:11:35;17.10;99.90
45339;DHT22;31071;51.478;5.710;2022-10-10T09:22:15;19.80;96.10
45339;DHT22;31071;51.478;5.710;2022-10-10T09:24:52;20.40;94.70
45339;DHT22;31071;51.478;5.710;2022-10-10T09:27:26;20.30;94.50
45339;DHT22;31071;51.478;5.710;2022-10-10T09:30:00;21.20;93.00
45339;DHT22;31071;51.478;5.710;2022-10-10T09:32:31;21.70;92.40
45339;DHT22;31071;51.478;5.710;2022-10-10T09:35:11;21.60;91.60
45339;DHT22;31071;51.478;5.710;2022-10-10T09:37:39;21.30;91.60
45339;DHT22;31071;51.478;5.710;2022-10-10T09:40:07;21.00;92.60
45339;DHT22;31071;51.478;5.710;2022-10-10T09:42:38;21.00;92.00
45339;DHT22;31071;51.478;5.710;2022-10-10T09:45:17;20.60;92.40
45339;DHT22;31071;51.478;5.710;2022-10-10T09:47:57;20.80;93.10
45339;DHT22;31071;51.478;5.710;2022-10-10T09:50:23;20.20;92.80
45339;DHT22;31071;51.478;5.710;2022-10-10T09:52:51;19.80;93.90
45339;DHT22;31071;51.478;5.710;2022-10-10T09:55:26;19.60;94.70
45339;DHT22;31071;51.478;5.710;2022-10-10T09:57:56;19.90;94.20
45339;DHT22;31071;51.478;5.710;2022-10-10T10:00:34;19.90;93.90
45339;DHT22;31071;51.478;5.710;2022-10-10T10:03:08;19.60;93.90
45339;DHT22;31071;51.478;5.710;2022-10-10T10:05:34;19.80;94.40
45339;DHT22;31071;51.478;5.710;2022-10-10T10:08:00;19.80;93.30
45339;DHT22;31071;51.478;5.710;2022-10-10T10:10:26;20.20;93.20
45339;DHT22;31071;51.478;5.710;2022-10-10T10:12:55;21.20;92.20
45339;DHT22;31071;51.478;5.710;2022-10-10T10:15:23;21.50;91.40
45339;DHT22;31071;51.478;5.710;2022-10-10T10:20:39;20.40;92.30
45339;DHT22;31071;51.478;5.710;2022-10-10T10:26:00;19.20;94.30
45339;DHT22;31071;51.478;5.710;2022-10-10T10:28:26;19.30;94.70
45339;DHT22;31071;51.478;5.710;2022-10-10T10:30:53;19.30;94.70
45339;DHT22;31071;51.478;5.710;2022-10-10T10:36:21;18.90;95.30
45339;DHT22;31071;51.478;5.710;2022-10-10T10:38:52;18.60;95.40
45339;DHT22;31071;51.478;5.710;2022-10-10T10:41:34;18.60;96.20
45339;DHT22;31071;51.478;5.710;2022-10-10T10:44:22;18.80;96.20
45339;DHT22;31071;51.478;5.710;2022-10-10T10:50:02;19.20;95.10
45339;DHT22;31071;51.478;5.710;2022-10-10T10:52:47;18.80;95.40
45339;DHT22;31071;51.478;5.710;2022-10-10T10:55:26;18.70;96.20
45339;DHT22;31071;51.478;5.710;2022-10-10T11:01:02;18.50;96.30
45339;DHT22;31071;51.478;5.710;2022-10-10T11:09:09;18.90;95.80
45339;DHT22;31071;51.478;5.710;2022-10-10T11:11:49;19.20;95.80
45339;DHT22;31071;51.478;5.710;2022-10-10T11:14:50;19.30;95.30
45339;DHT22;31071;51.478;5.710;2022-10-10T11:20:35;19.50;95.00
45339;DHT22;31071;51.478;5.710;2022-10-10T11:23:24;20.00;94.60
45339;DHT22;31071;51.478;5.710;2022-10-10T11:26:21;20.60;93.70
45339;DHT22;31071;51.478;5.710;2022-10-10T11:28:58;20.80;93.70
45339;DHT22;31071;51.478;5.710;2022-10-10T11:31:32;20.70;93.20
45339;DHT22;31071;51.478;5.710;2022-10-10T11:34:07;20.00;93.00
45339;DHT22;31071;51.478;5.710;2022-10-10T11:36:36;19.90;93.80
45339;DHT22;31071;51.478;5.710;2022-10-10T11:39:11;20.00;93.80
45339;DHT22;31071;51.478;5.710;2022-10-10T11:42:01;20.60;93.70
45339;DHT22;31071;51.478;5.710;2022-10-10T11:44:44;20.70;92.30
45339;DHT22;31071;51.478;5.710;2022-10-10T11:49:59;21.30;92.00
45339;DHT22;31071;51.478;5.710;2022-10-10T11:52:51;21.50;92.00
45339;DHT22;31071;51.478;5.710;2022-10-10T11:55:30;22.20;91.20
45339;DHT22;31071;51.478;5.710;2022-10-10T12:00:40;23.50;86.90
45339;DHT22;31071;51.478;5.710;2022-10-10T12:03:08;23.10;86.70
45339;DHT22;31071;51.478;5.710;2022-10-10T12:05:34;22.70;88.00
45339;DHT22;31071;51.478;5.710;2022-10-10T12:08:07;23.30;87.30
45339;DHT22;31071;51.478;5.710;2022-10-10T12:10:45;24.00;83.70
45339;DHT22;31071;51.478;5.710;2022-10-10T12:13:42;24.30;83.30
45339;DHT22;31071;51.478;5.710;2022-10-10T12:16:15;25.00;81.70
45339;DHT22;31071;51.478;5.710;2022-10-10T12:18:50;25.20;79.10
45339;DHT22;31071;51.478;5.710;2022-10-10T12:21:18;24.00;81.80
45339;DHT22;31071;51.478;5.710;2022-10-10T12:24:09;23.00;84.30
45339;DHT22;31071;51.478;5.710;2022-10-10T12:32:23;22.00;87.90
45339;DHT22;31071;51.478;5.710;2022-10-10T12:37:27;21.40;89.00
45339;DHT22;31071;51.478;5.710;2022-10-10T12:48:00;21.90;90.50
45339;DHT22;31071;51.478;5.710;2022-10-10T12:50:28;22.40;89.30
45339;DHT22;31071;51.478;5.710;2022-10-10T12:52:58;23.00;87.20
45339;DHT22;31071;51.478;5.710;2022-10-10T12:55:28;23.50;85.10
45339;DHT22;31071;51.478;5.710;2022-10-10T12:57:57;24.50;83.20
45339;DHT22;31071;51.478;5.710;2022-10-10T13:00:27;24.80;81.30
45339;DHT22;31071;51.478;5.710;2022-10-10T13:03:03;23.60;83.10
45339;DHT22;31071;51.478;5.710;2022-10-10T13:05:35;23.10;85.40
45339;DHT22;31071;51.478;5.710;2022-10-10T13:08:07;22.30;87.60
45339;DHT22;31071;51.478;5.710;2022-10-10T13:10:36;21.60;90.10
45339;DHT22;31071;51.478;5.710;2022-10-10T13:13:24;21.20;90.70
45339;DHT22;31071;51.478;5.710;2022-10-10T13:15:51;21.00;91.40
45339;DHT22;31071;51.478;5.710;2022-10-10T13:18:37;20.40;92.00
45339;DHT22;31071;51.478;5.710;2022-10-10T13:21:05;20.10;92.90
45339;DHT22;31071;51.478;5.710;2022-10-10T13:23:33;19.90;93.40
45339;DHT22;31071;51.478;5.710;2022-10-10T13:25:59;19.80;93.40
45339;DHT22;31071;51.478;5.710;2022-10-10T13:28:25;19.60;93.80
45339;DHT22;31071;51.478;5.710;2022-10-10T13:30:51;19.50;94.20
45339;DHT22;31071;51.478;5.710;2022-10-10T13:33:18;19.30;94.20
45339;DHT22;31071;51.478;5.710;2022-10-10T13:35:45;19.20;94.60
45339;DHT22;31071;51.478;5.710;2022-10-10T13:38:24;19.10;94.80
45339;DHT22;31071;51.478;5.710;2022-10-10T13:40:50;19.00;95.20
45339;DHT22;31071;51.478;5.710;2022-10-10T13:43:17;18.90;95.70
45339;DHT22;31071;51.478;5.710;2022-10-10T13:45:57;18.70;95.90
45339;DHT22;31071;51.478;5.710;2022-10-10T13:51:10;18.60;96.80
45339;DHT22;31071;51.478;5.710;2022-10-10T13:54:00;18.40;97.50
45339;DHT22;31071;51.478;5.710;2022-10-10T13:56:27;18.30;97.70
45339;DHT22;31071;51.478;5.710;2022-10-10T13:58:55;18.20;98.20
45339;DHT22;31071;51.478;5.710;2022-10-10T14:01:28;18.20;98.40
45339;DHT22;31071;51.478;5.710;2022-10-10T14:06:28;18.10;98.90
45339;DHT22;31071;51.478;5.710;2022-10-10T14:09:02;18.10;99.00
45339;DHT22;31071;51.478;5.710;2022-10-10T14:11:30;18.20;99.20
45339;DHT22;31071;51.478;5.710;2022-10-10T14:14:03;18.20;99.50
45339;DHT22;31071;51.478;5.710;2022-10-10T14:16:31;18.20;99.60
45339;DHT22;31071;51.478;5.710;2022-10-10T14:18:56;18.20;99.50
45339;DHT22;31071;51.478;5.710;2022-10-10T14:21:22;18.10;99.70
45339;DHT22;31071;51.478;5.710;2022-10-10T14:23:48;18.10;99.90
45339;DHT22;31071;51.478;5.710;2022-10-10T14:26:16;18.10;99.90
45339;DHT22;31071;51.478;5.710;2022-10-10T14:28:42;18.10;99.90
45339;DHT22;31071;51.478;5.710;2022-10-10T14:31:08;18.00;99.90
45339;DHT22;31071;51.478;5.710;2022-10-10T14:33:33;17.90;99.90
45339;DHT22;31071;51.478;5.710;2022-10-10T14:35:59;17.90;99.90
45339;DHT22;31071;51.478;5.710;2022-10-10T14:38:25;17.90;99.90
45339;DHT22;31071;51.478;5.710;2022-10-10T14:40:52;18.00;99.90
45339;DHT22;31071;51.478;5.710;2022-10-10T14:43:18;17.80;99.90
45339;DHT22;31071;51.478;5.710;2022-10-10T14:45:45;17.70;99.90
45339;DHT22;31071;51.478;5.710;2022-10-10T14:48:12;17.50;99.90
45339;DHT22;31071;51.478;5.710;2022-10-10T14:50:44;17.40;99.90
45339;DHT22;31071;51.478;5.710;2022-10-10T14:53:10;17.30;99.90
45339;DHT22;31071;51.478;5.710;2022-10-10T14:55:37;17.10;99.90
45339;DHT22;31071;51.478;5.710;2022-10-10T14:58:17;16.80;99.90
45339;DHT22;31071;51.478;5.710;2022-10-10T15:00:44;16.60;99.90
45339;DHT22;31071;51.478;5.710;2022-10-10T15:03:10;16.50;99.90
45339;DHT22;31071;51.478;5.710;2022-10-10T15:05:35;16.50;99.90
45339;DHT22;31071;51.478;5.710;2022-10-10T15:08:01;16.50;99.90
45339;DHT22;31071;51.478;5.710;2022-10-10T15:10:26;16.50;99.90
45339;DHT22;31071;51.478;5.710;2022-10-10T15:12:52;16.40;99.90
45339;DHT22;31071;51.478;5.710;2022-10-10T15:15:17;16.30;99.90
45339;DHT22;31071;51.478;5.710;2022-10-10T15:17:43;16.30;99.90
45339;DHT22;31071;51.478;5.710;2022-10-10T15:20:11;16.20;99.90
45339;DHT22;31071;51.478;5.710;2022-10-10T15:22:37;16.10;99.90
45339;DHT22;31071;51.478;5.710;2022-10-10T15:25:04;15.90;99.90
45339;DHT22;31071;51.478;5.710;2022-10-10T15:27:30;15.80;99.90
45339;DHT22;31071;51.478;5.710;2022-10-10T15:29:57;15.60;99.90
45339;DHT22;31071;51.478;5.710;2022-10-10T15:32:23;15.40;99.90
45339;DHT22;31071;51.478;5.710;2022-10-10T15:34:49;15.30;99.90
45339;DHT22;31071;51.478;5.710;2022-10-10T15:37:15;15.20;99.90
45339;DHT22;31071;51.478;5.710;2022-10-10T15:39:41;15.00;99.90
45339;DHT22;31071;51.478;5.710;2022-10-10T15:42:09;14.80;99.90
45339;DHT22;31071;51.478;5.710;2022-10-10T15:44:34;14.50;99.90
45339;DHT22;31071;51.478;5.710;2022-10-10T15:47:00;14.40;99.90
45339;DHT22;31071;51.478;5.710;2022-10-10T15:49:25;14.30;99.90
45339;DHT22;31071;51.478;5.710;2022-10-10T15:51:51;14.30;99.90
45339;DHT22;31071;51.478;5.710;2022-10-10T15:54:17;14.00;99.90
45339;DHT22;31071;51.478;5.710;2022-10-10T15:56:42;13.80;99.90
45339;DHT22;31071;51.478;5.710;2022-10-10T15:59:08;13.70;99.90
45339;DHT22;31071;51.478;5.710;2022-10-10T16:01:35;13.70;99.90
45339;DHT22;31071;51.478;5.710;2022-10-10T16:04:01;13.60;99.90
45339;DHT22;31071;51.478;5.710;2022-10-10T16:06:29;13.60;99.90
45339;DHT22;31071;51.478;5.710;2022-10-10T16:08:55;13.50;99.90
45339;DHT22;31071;51.478;5.710;2022-10-10T16:11:21;13.50;99.90
45339;DHT22;31071;51.478;5.710;2022-10-10T16:13:53;13.50;99.90
45339;DHT22;31071;51.478;5.710;2022-10-10T16:16:20;13.50;99.90
45339;DHT22;31071;51.478;5.710;2022-10-10T16:18:46;13.60;99.90
45339;DHT22;31071;51.478;5.710;2022-10-10T16:21:18;13.50;99.90
45339;DHT22;31071;51.478;5.710;2022-10-10T16:23:44;13.50;99.90
45339;DHT22;31071;51.478;5.710;2022-10-10T16:26:18;13.50;99.90
45339;DHT22;31071;51.478;5.710;2022-10-10T16:28:43;13.40;99.90
45339;DHT22;31071;51.478;5.710;2022-10-10T16:31:11;13.30;99.90
45339;DHT22;31071;51.478;5.710;2022-10-10T16:33:38;13.30;99.90
45339;DHT22;31071;51.478;5.710;2022-10-10T16:36:26;13.30;99.90
45339;DHT22;31071;51.478;5.710;2022-10-10T16:38:53;13.20;99.90
45339;DHT22;31071;51.478;5.710;2022-10-10T16:41:21;13.30;99.90
45339;DHT22;31071;51.478;5.710;2022-10-10T16:43:47;13.20;99.90
45339;DHT22;31071;51.478;5.710;2022-10-10T16:46:17;13.20;99.90
45339;DHT22;31071;51.478;5.710;2022-10-10T16:48:43;13.20;99.90
45339;DHT22;31071;51.478;5.710;2022-10-10T16:51:12;13.20;99.90
45339;DHT22;31071;51.478;5.710;2022-10-10T16:53:38;13.30;99.90
45339;DHT22;31071;51.478;5.710;2022-10-10T16:56:06;13.30;99.90
45339;DHT22;31071;51.478;5.710;2022-10-10T16:58:33;13.40;99.90
45339;DHT22;31071;51.478;5.710;2022-10-10T17:00:58;13.30;99.90
45339;DHT22;31071;51.478;5.710;2022-10-10T17:03:24;13.30;99.90
45339;DHT22;31071;51.478;5.710;2022-10-10T17:06:04;13.30;99.90
45339;DHT22;31071;51.478;5.710;2022-10-10T17:08:31;13.30;99.90
45339;DHT22;31071;51.478;5.710;2022-10-10T17:10:57;13.20;99.90
45339;DHT22;31071;51.478;5.710;2022-10-10T17:13:23;13.30;99.90
45339;DHT22;31071;51.478;5.710;2022-10-10T17:15:49;13.40;99.90